sensor_id;sensor_type;location;lat;lon;timestamp;temperature;humidity
20155;DHT22;10238;49.556;10.956;2023-06-22T00:01:45;19.10;99.90
20155;DHT22;10238;49.556;10.956;2023-06-22T00:04:34;19.00;99.90
20155;DHT22;10238;49.556;10.956;2023-06-22T00:07:22;19.00;99.90
20155;DHT22;10238;49.556;10.956;2023-06-22T00:10:10;19.00;99.90
20155;DHT22;10238;49.556;10.956;2023-06-22T00:12:57;19.00;99.90
20155;DHT22;10238;49.556;10.956;2023-06-22T00:15:45;19.00;99.90
20155;DHT22;10238;49.556;10.956;2023-06-22T00:18:33;18.90;99.90
20155;DHT22;10238;49.556;10.956;2023-06-22T00:21:22;18.80;99.90
20155;DHT22;10238;49.556;10.956;2023-06-22T00:24:10;18.80;99.90
20155;DHT22;10238;49.556;10.956;2023-06-22T00:26:57;18.80;99.90
20155;DHT22;10238;49.556;10.956;2023-06-22T00:29:45;18.80;99.90
20155;DHT22;10238;49.556;10.956;2023-06-22T00:32:32;18.70;99.90
20155;DHT22;10238;49.556;10.956;2023-06-22T00:35:20;18.70;99.90
20155;DHT22;10238;49.556;10.956;2023-06-22T00:38:09;18.70;99.90
20155;DHT22;10238;49.556;10.956;2023-06-22T00:40:57;18.70;99.90
20155;DHT22;10238;49.556;10.956;2023-06-22T00:43:45;18.70;99.90
20155;DHT22;10238;49.556;10.956;2023-06-22T00:46:33;18.70;99.90
20155;DHT22;10238;49.556;10.956;2023-06-22T00:49:20;18.60;99.90
20155;DHT22;10238;49.556;10.956;2023-06-22T00:52:34;18.60;99.90
20155;DHT22;10238;49.556;10.956;2023-06-22T00:55:25;18.50;99.90
20155;DHT22;10238;49.556;10.956;2023-06-22T00:58:13;18.50;99.90
20155;DHT22;10238;49.556;10.956;2023-06-22T01:01:01;18.50;99.90
20155;DHT22;10238;49.556;10.956;2023-06-22T01:03:49;18.50;99.90
20155;DHT22;10238;49.556;10.956;2023-06-22T01:06:43;18.40;99.90
20155;DHT22;10238;49.556;10.956;2023-06-22T01:09:45;18.50;99.90
20155;DHT22;10238;49.556;10.956;2023-06-22T01:12:42;18.50;99.90
20155;DHT22;10238;49.556;10.956;2023-06-22T01:15:37;18.40;99.90
20155;DHT22;10238;49.556;10.956;2023-06-22T01:18:30;18.30;99.90
20155;DHT22;10238;49.556;10.956;2023-06-22T01:21:21;18.30;99.90
20155;DHT22;10238;49.556;10.956;2023-06-22T01:24:20;18.30;99.90
20155;DHT22;10238;49.556;10.956;2023-06-22T01:27:22;18.20;99.90
20155;DHT22;10238;49.556;10.956;2023-06-22T01:30:20;18.20;99.90
20155;DHT22;10238;49.556;10.956;2023-06-22T01:33:10;18.20;99.90
20155;DHT22;10238;49.556;10.956;2023-06-22T01:36:01;18.10;99.90
20155;DHT22;10238;49.556;10.956;2023-06-22T01:38:50;18.20;99.90
20155;DHT22;10238;49.556;10.956;2023-06-22T01:41:42;18.10;99.90
20155;DHT22;10238;49.556;10.956;2023-06-22T01:44:31;18.10;99.90
20155;DHT22;10238;49.556;10.956;2023-06-22T01:47:20;18.10;99.90
20155;DHT22;10238;49.556;10.956;2023-06-22T01:50:09;18.00;99.90
20155;DHT22;10238;49.556;10.956;2023-06-22T01:52:58;18.00;99.90
20155;DHT22;10238;49.556;10.956;2023-06-22T01:55:46;18.00;99.90
20155;DHT22;10238;49.556;10.956;2023-06-22T01:58:34;18.00;99.90
20155;DHT22;10238;49.556;10.956;2023-06-22T02:01:31;18.00;99.90
20155;DHT22;10238;49.556;10.956;2023-06-22T02:04:32;18.00;99.90
20155;DHT22;10238;49.556;10.956;2023-06-22T02:07:26;17.90;99.90
20155;DHT22;10238;49.556;10.956;2023-06-22T02:10:20;17.90;99.90
20155;DHT22;10238;49.556;10.956;2023-06-22T02:13:10;17.90;99.90
20155;DHT22;10238;49.556;10.956;2023-06-22T02:16:01;17.90;99.90
20155;DHT22;10238;49.556;10.956;2023-06-22T02:18:50;17.80;99.90
20155;DHT22;10238;49.556;10.956;2023-06-22T02:21:40;17.80;99.90
20155;DHT22;10238;49.556;10.956;2023-06-22T02:24:27;17.70;99.90
20155;DHT22;10238;49.556;10.956;2023-06-22T02:27:17;17.80;99.90
20155;DHT22;10238;49.556;10.956;2023-06-22T02:30:06;17.70;99.90
20155;DHT22;10238;49.556;10.956;2023-06-22T02:32:54;17.60;99.90
20155;DHT22;10238;49.556;10.956;2023-06-22T02:35:45;17.60;99.90
20155;DHT22;10238;49.556;10.956;2023-06-22T02:38:36;17.60;99.90
20155;DHT22;10238;49.556;10.956;2023-06-22T02:41:24;17.60;99.90
20155;DHT22;10238;49.556;10.956;2023-06-22T02:44:11;17.80;99.90
20155;DHT22;10238;49.556;10.956;2023-06-22T02:46:59;18.00;99.90
20155;DHT22;10238;49.556;10.956;2023-06-22T02:49:46;18.10;99.90
20155;DHT22;10238;49.556;10.956;2023-06-22T02:52:35;18.10;99.90
20155;DHT22;10238;49.556;10.956;2023-06-22T02:55:24;18.20;99.90
20155;DHT22;10238;49.556;10.956;2023-06-22T02:58:11;18.20;99.90
20155;DHT22;10238;49.556;10.956;2023-06-22T03:00:59;18.10;99.90
20155;DHT22;10238;49.556;10.956;2023-06-22T03:03:51;18.10;99.90
20155;DHT22;10238;49.556;10.956;2023-06-22T03:06:39;18.10;99.90
20155;DHT22;10238;49.556;10.956;2023-06-22T03:09:27;18.20;99.90
20155;DHT22;10238;49.556;10.956;2023-06-22T03:12:16;18.20;99.90
20155;DHT22;10238;49.556;10.956;2023-06-22T03:15:05;18.10;99.90
20155;DHT22;10238;49.556;10.956;2023-06-22T03:17:54;18.00;99.90
20155;DHT22;10238;49.556;10.956;2023-06-22T03:20:42;18.00;99.90
20155;DHT22;10238;49.556;10.956;2023-06-22T03:23:30;18.00;99.90
20155;DHT22;10238;49.556;10.956;2023-06-22T03:26:18;18.00;99.90
20155;DHT22;10238;49.556;10.956;2023-06-22T03:29:06;17.90;99.90
20155;DHT22;10238;49.556;10.956;2023-06-22T03:31:54;17.90;99.90
20155;DHT22;10238;49.556;10.956;2023-06-22T03:34:42;17.90;99.90
20155;DHT22;10238;49.556;10.956;2023-06-22T03:37:33;17.90;99.90
20155;DHT22;10238;49.556;10.956;2023-06-22T03:40:20;17.90;99.90
20155;DHT22;10238;49.556;10.956;2023-06-22T03:43:14;18.00;99.90
20155;DHT22;10238;49.556;10.956;2023-06-22T03:46:03;17.90;99.90
20155;DHT22;10238;49.556;10.956;2023-06-22T03:48:51;18.00;99.90
20155;DHT22;10238;49.556;10.956;2023-06-22T03:51:39;18.00;99.90
20155;DHT22;10238;49.556;10.956;2023-06-22T03:54:27;18.00;99.90
20155;DHT22;10238;49.556;10.956;2023-06-22T03:57:15;18.00;99.90
20155;DHT22;10238;49.556;10.956;2023-06-22T04:00:03;18.00;99.90
20155;DHT22;10238;49.556;10.956;2023-06-22T04:02:55;18.00;99.90
20155;DHT22;10238;49.556;10.956;2023-06-22T04:05:44;18.00;99.90
20155;DHT22;10238;49.556;10.956;2023-06-22T04:08:31;18.00;99.90
20155;DHT22;10238;49.556;10.956;2023-06-22T04:11:19;18.00;99.90
20155;DHT22;10238;49.556;10.956;2023-06-22T04:14:08;18.00;99.90
20155;DHT22;10238;49.556;10.956;2023-06-22T04:16:57;18.00;99.90
20155;DHT22;10238;49.556;10.956;2023-06-22T04:19:46;18.10;99.90
20155;DHT22;10238;49.556;10.956;2023-06-22T04:22:34;18.10;99.90
20155;DHT22;10238;49.556;10.956;2023-06-22T04:25:22;18.10;99.90
20155;DHT22;10238;49.556;10.956;2023-06-22T04:28:35;18.20;99.90
20155;DHT22;10238;49.556;10.956;2023-06-22T04:31:23;18.20;99.90
20155;DHT22;10238;49.556;10.956;2023-06-22T04:34:13;18.20;99.90
20155;DHT22;10238;49.556;10.956;2023-06-22T04:37:04;18.30;99.90
20155;DHT22;10238;49.556;10.956;2023-06-22T04:39:52;18.40;99.90
20155;DHT22;10238;49.556;10.956;2023-06-22T04:42:40;18.40;99.90
20155;DHT22;10238;49.556;10.956;2023-06-22T04:45:40;18.40;99.90
20155;DHT22;10238;49.556;10.956;2023-06-22T04:48:27;18.40;99.90
20155;DHT22;10238;49.556;10.956;2023-06-22T04:51:21;18.50;99.90
20155;DHT22;10238;49.556;10.956;2023-06-22T04:54:17;18.50;99.90
20155;DHT22;10238;49.556;10.956;2023-06-22T04:57:07;18.50;99.90
20155;DHT22;10238;49.556;10.956;2023-06-22T04:59:56;18.60;99.90
20155;DHT22;10238;49.556;10.956;2023-06-22T05:02:47;18.60;99.90
20155;DHT22;10238;49.556;10.956;2023-06-22T05:05:36;18.70;99.90
20155;DHT22;10238;49.556;10.956;2023-06-22T05:08:26;18.70;99.90
20155;DHT22;10238;49.556;10.956;2023-06-22T05:11:16;18.80;99.90
20155;DHT22;10238;49.556;10.956;2023-06-22T05:14:05;18.90;99.90
20155;DHT22;10238;49.556;10.956;2023-06-22T05:17:10;18.90;99.90
20155;DHT22;10238;49.556;10.956;2023-06-22T05:20:02;19.10;99.90
20155;DHT22;10238;49.556;10.956;2023-06-22T05:23:04;19.20;99.90
20155;DHT22;10238;49.556;10.956;2023-06-22T05:25:52;19.30;99.90
20155;DHT22;10238;49.556;10.956;2023-06-22T05:28:42;19.50;99.90
20155;DHT22;10238;49.556;10.956;2023-06-22T05:31:39;19.50;99.90
20155;DHT22;10238;49.556;10.956;2023-06-22T05:34:27;19.70;99.90
20155;DHT22;10238;49.556;10.956;2023-06-22T05:37:15;19.80;99.90
20155;DHT22;10238;49.556;10.956;2023-06-22T05:40:05;20.00;99.90
20155;DHT22;10238;49.556;10.956;2023-06-22T05:42:53;20.10;99.90
20155;DHT22;10238;49.556;10.956;2023-06-22T05:45:42;20.30;99.90
20155;DHT22;10238;49.556;10.956;2023-06-22T05:48:30;20.40;99.90
20155;DHT22;10238;49.556;10.956;2023-06-22T05:51:18;20.60;99.90
20155;DHT22;10238;49.556;10.956;2023-06-22T05:54:06;20.70;99.90
20155;DHT22;10238;49.556;10.956;2023-06-22T05:56:54;20.80;99.90
20155;DHT22;10238;49.556;10.956;2023-06-22T05:59:42;21.00;99.90
20155;DHT22;10238;49.556;10.956;2023-06-22T06:02:30;21.10;99.90
20155;DHT22;10238;49.556;10.956;2023-06-22T06:05:20;21.20;99.90
20155;DHT22;10238;49.556;10.956;2023-06-22T06:08:09;21.40;99.90
20155;DHT22;10238;49.556;10.956;2023-06-22T06:10:58;21.50;99.90
20155;DHT22;10238;49.556;10.956;2023-06-22T06:13:46;21.60;99.90
20155;DHT22;10238;49.556;10.956;2023-06-22T06:16:34;21.80;99.90
20155;DHT22;10238;49.556;10.956;2023-06-22T06:19:23;22.00;99.90
20155;DHT22;10238;49.556;10.956;2023-06-22T06:22:14;22.10;99.90
20155;DHT22;10238;49.556;10.956;2023-06-22T06:25:01;22.20;99.90
20155;DHT22;10238;49.556;10.956;2023-06-22T06:27:50;22.40;99.90
20155;DHT22;10238;49.556;10.956;2023-06-22T06:30:40;22.50;99.90
20155;DHT22;10238;49.556;10.956;2023-06-22T06:33:28;22.70;99.90
20155;DHT22;10238;49.556;10.956;2023-06-22T06:36:19;22.80;99.90
20155;DHT22;10238;49.556;10.956;2023-06-22T06:39:31;22.90;99.90
20155;DHT22;10238;49.556;10.956;2023-06-22T06:42:19;23.10;99.90
20155;DHT22;10238;49.556;10.956;2023-06-22T06:45:09;23.40;99.90
20155;DHT22;10238;49.556;10.956;2023-06-22T06:47:58;23.60;99.90
20155;DHT22;10238;49.556;10.956;2023-06-22T06:50:49;23.80;99.90
20155;DHT22;10238;49.556;10.956;2023-06-22T06:53:44;24.00;99.90
20155;DHT22;10238;49.556;10.956;2023-06-22T06:56:32;24.10;99.90
20155;DHT22;10238;49.556;10.956;2023-06-22T06:59:20;24.20;99.90
20155;DHT22;10238;49.556;10.956;2023-06-22T07:02:07;24.40;99.90
20155;DHT22;10238;49.556;10.956;2023-06-22T07:04:55;24.60;99.90
20155;DHT22;10238;49.556;10.956;2023-06-22T07:07:42;24.80;99.90
20155;DHT22;10238;49.556;10.956;2023-06-22T07:10:32;24.80;99.90
20155;DHT22;10238;49.556;10.956;2023-06-22T07:13:19;24.90;99.90
20155;DHT22;10238;49.556;10.956;2023-06-22T07:16:07;25.00;99.90
20155;DHT22;10238;49.556;10.956;2023-06-22T07:18:55;25.10;99.90
20155;DHT22;10238;49.556;10.956;2023-06-22T07:21:42;25.40;99.90
20155;DHT22;10238;49.556;10.956;2023-06-22T07:24:30;25.70;99.90
20155;DHT22;10238;49.556;10.956;2023-06-22T07:27:19;25.70;99.90
20155;DHT22;10238;49.556;10.956;2023-06-22T07:30:08;25.90;99.90
20155;DHT22;10238;49.556;10.956;2023-06-22T07:32:58;26.20;99.90
20155;DHT22;10238;49.556;10.956;2023-06-22T07:35:49;26.10;99.90
20155;DHT22;10238;49.556;10.956;2023-06-22T07:38:42;26.30;99.90
20155;DHT22;10238;49.556;10.956;2023-06-22T07:41:30;26.60;99.90
20155;DHT22;10238;49.556;10.956;2023-06-22T07:44:26;26.80;99.90
20155;DHT22;10238;49.556;10.956;2023-06-22T07:47:13;26.80;99.90
20155;DHT22;10238;49.556;10.956;2023-06-22T07:50:05;26.70;99.90
20155;DHT22;10238;49.556;10.956;2023-06-22T07:52:53;27.00;99.90
20155;DHT22;10238;49.556;10.956;2023-06-22T07:55:41;27.40;99.90
20155;DHT22;10238;49.556;10.956;2023-06-22T07:58:28;27.80;99.90
20155;DHT22;10238;49.556;10.956;2023-06-22T08:01:17;28.30;99.90
20155;DHT22;10238;49.556;10.956;2023-06-22T08:04:07;28.60;99.90
20155;DHT22;10238;49.556;10.956;2023-06-22T08:06:55;28.80;99.90
20155;DHT22;10238;49.556;10.956;2023-06-22T08:09:46;29.00;99.90
20155;DHT22;10238;49.556;10.956;2023-06-22T08:12:36;29.30;99.90
20155;DHT22;10238;49.556;10.956;2023-06-22T08:15:23;29.20;99.90
20155;DHT22;10238;49.556;10.956;2023-06-22T08:18:15;29.40;99.90
20155;DHT22;10238;49.556;10.956;2023-06-22T08:21:03;29.60;99.90
20155;DHT22;10238;49.556;10.956;2023-06-22T08:23:51;29.90;99.90
20155;DHT22;10238;49.556;10.956;2023-06-22T08:26:39;30.40;99.90
20155;DHT22;10238;49.556;10.956;2023-06-22T08:29:27;30.40;99.90
20155;DHT22;10238;49.556;10.956;2023-06-22T08:32:17;30.40;99.90
20155;DHT22;10238;49.556;10.956;2023-06-22T08:35:08;30.40;99.90
20155;DHT22;10238;49.556;10.956;2023-06-22T08:37:56;30.70;99.90
20155;DHT22;10238;49.556;10.956;2023-06-22T08:40:44;31.00;99.90
20155;DHT22;10238;49.556;10.956;2023-06-22T08:43:32;30.40;99.90
20155;DHT22;10238;49.556;10.956;2023-06-22T08:46:19;30.40;99.90
20155;DHT22;10238;49.556;10.956;2023-06-22T08:49:09;30.60;99.90
20155;DHT22;10238;49.556;10.956;2023-06-22T08:51:58;30.90;99.90
20155;DHT22;10238;49.556;10.956;2023-06-22T08:54:46;31.40;99.90
20155;DHT22;10238;49.556;10.956;2023-06-22T08:57:34;31.20;99.90
20155;DHT22;10238;49.556;10.956;2023-06-22T09:00:25;30.80;99.90
20155;DHT22;10238;49.556;10.956;2023-06-22T09:03:15;30.30;99.90
20155;DHT22;10238;49.556;10.956;2023-06-22T09:06:29;30.10;99.90
20155;DHT22;10238;49.556;10.956;2023-06-22T09:09:37;30.70;99.90
20155;DHT22;10238;49.556;10.956;2023-06-22T09:12:25;31.00;99.90
20155;DHT22;10238;49.556;10.956;2023-06-22T09:15:13;31.00;99.90
20155;DHT22;10238;49.556;10.956;2023-06-22T09:18:13;31.40;99.90
20155;DHT22;10238;49.556;10.956;2023-06-22T09:21:01;32.10;99.90
20155;DHT22;10238;49.556;10.956;2023-06-22T09:23:49;32.40;99.90
20155;DHT22;10238;49.556;10.956;2023-06-22T09:26:39;32.70;99.90
20155;DHT22;10238;49.556;10.956;2023-06-22T09:29:27;32.80;99.90
20155;DHT22;10238;49.556;10.956;2023-06-22T09:32:14;32.50;99.90
20155;DHT22;10238;49.556;10.956;2023-06-22T09:35:08;32.40;99.90
20155;DHT22;10238;49.556;10.956;2023-06-22T09:38:01;32.90;99.90
20155;DHT22;10238;49.556;10.956;2023-06-22T09:40:49;33.20;99.90
20155;DHT22;10238;49.556;10.956;2023-06-22T09:43:38;33.40;99.90
20155;DHT22;10238;49.556;10.956;2023-06-22T09:46:26;33.70;99.90
20155;DHT22;10238;49.556;10.956;2023-06-22T09:49:14;33.80;98.40
20155;DHT22;10238;49.556;10.956;2023-06-22T09:52:02;33.80;96.80
20155;DHT22;10238;49.556;10.956;2023-06-22T09:54:50;34.00;98.60
20155;DHT22;10238;49.556;10.956;2023-06-22T09:57:38;33.90;99.90
20155;DHT22;10238;49.556;10.956;2023-06-22T10:00:27;34.30;99.90
20155;DHT22;10238;49.556;10.956;2023-06-22T10:03:15;33.80;99.90
20155;DHT22;10238;49.556;10.956;2023-06-22T10:06:03;34.10;99.90
20155;DHT22;10238;49.556;10.956;2023-06-22T10:08:51;34.10;99.90
20155;DHT22;10238;49.556;10.956;2023-06-22T10:11:38;34.30;99.90
20155;DHT22;10238;49.556;10.956;2023-06-22T10:14:26;34.40;97.50
20155;DHT22;10238;49.556;10.956;2023-06-22T10:17:17;34.80;99.30
20155;DHT22;10238;49.556;10.956;2023-06-22T10:20:06;35.40;99.60
20155;DHT22;10238;49.556;10.956;2023-06-22T10:22:58;36.10;96.10
20155;DHT22;10238;49.556;10.956;2023-06-22T10:25:45;36.50;96.00
20155;DHT22;10238;49.556;10.956;2023-06-22T10:28:33;36.70;95.50
20155;DHT22;10238;49.556;10.956;2023-06-22T10:31:21;36.40;93.70
20155;DHT22;10238;49.556;10.956;2023-06-22T10:34:10;35.60;95.50
20155;DHT22;10238;49.556;10.956;2023-06-22T10:36:58;35.30;95.00
20155;DHT22;10238;49.556;10.956;2023-06-22T10:39:55;35.80;94.90
20155;DHT22;10238;49.556;10.956;2023-06-22T10:42:43;36.10;93.90
20155;DHT22;10238;49.556;10.956;2023-06-22T10:45:31;35.90;93.80
20155;DHT22;10238;49.556;10.956;2023-06-22T10:48:19;35.30;91.60
20155;DHT22;10238;49.556;10.956;2023-06-22T10:51:08;35.20;94.10
20155;DHT22;10238;49.556;10.956;2023-06-22T10:53:56;34.90;91.90
20155;DHT22;10238;49.556;10.956;2023-06-22T10:56:44;34.50;92.00
20155;DHT22;10238;49.556;10.956;2023-06-22T10:59:32;34.80;91.30
20155;DHT22;10238;49.556;10.956;2023-06-22T11:02:19;34.60;91.40
20155;DHT22;10238;49.556;10.956;2023-06-22T11:05:08;35.00;95.10
20155;DHT22;10238;49.556;10.956;2023-06-22T11:07:57;35.50;93.80
20155;DHT22;10238;49.556;10.956;2023-06-22T11:10:45;36.00;90.50
20155;DHT22;10238;49.556;10.956;2023-06-22T11:13:33;35.40;91.40
20155;DHT22;10238;49.556;10.956;2023-06-22T11:16:21;35.20;91.00
20155;DHT22;10238;49.556;10.956;2023-06-22T11:19:09;34.80;90.60
20155;DHT22;10238;49.556;10.956;2023-06-22T11:21:56;34.60;95.10
20155;DHT22;10238;49.556;10.956;2023-06-22T11:25:07;35.60;93.80
20155;DHT22;10238;49.556;10.956;2023-06-22T11:31:03;37.40;90.10
20155;DHT22;10238;49.556;10.956;2023-06-22T11:34:10;36.60;87.60
20155;DHT22;10238;49.556;10.956;2023-06-22T11:36:58;35.90;93.70
20155;DHT22;10238;49.556;10.956;2023-06-22T11:39:45;36.40;87.50
20155;DHT22;10238;49.556;10.956;2023-06-22T11:42:40;36.30;91.70
20155;DHT22;10238;49.556;10.956;2023-06-22T11:45:28;36.20;88.10
20155;DHT22;10238;49.556;10.956;2023-06-22T11:48:16;36.10;91.10
20155;DHT22;10238;49.556;10.956;2023-06-22T11:51:03;35.70;90.50
20155;DHT22;10238;49.556;10.956;2023-06-22T11:53:53;35.70;87.00
20155;DHT22;10238;49.556;10.956;2023-06-22T11:56:41;35.50;90.10
20155;DHT22;10238;49.556;10.956;2023-06-22T11:59:42;36.30;87.90
20155;DHT22;10238;49.556;10.956;2023-06-22T12:02:30;36.30;92.40
20155;DHT22;10238;49.556;10.956;2023-06-22T12:05:19;37.10;91.20
20155;DHT22;10238;49.556;10.956;2023-06-22T12:08:08;36.70;84.50
20155;DHT22;10238;49.556;10.956;2023-06-22T12:10:56;36.40;84.80
20155;DHT22;10238;49.556;10.956;2023-06-22T12:13:43;36.40;90.20
20155;DHT22;10238;49.556;10.956;2023-06-22T12:16:32;37.00;84.10
20155;DHT22;10238;49.556;10.956;2023-06-22T12:19:20;37.20;89.30
20155;DHT22;10238;49.556;10.956;2023-06-22T12:22:07;37.60;83.30
20155;DHT22;10238;49.556;10.956;2023-06-22T12:24:55;37.40;82.10
20155;DHT22;10238;49.556;10.956;2023-06-22T12:27:43;37.40;85.00
20155;DHT22;10238;49.556;10.956;2023-06-22T12:30:30;37.00;83.20
20155;DHT22;10238;49.556;10.956;2023-06-22T12:33:21;37.40;84.90
20155;DHT22;10238;49.556;10.956;2023-06-22T12:36:09;37.40;82.80
20155;DHT22;10238;49.556;10.956;2023-06-22T12:38:56;37.10;83.40
20155;DHT22;10238;49.556;10.956;2023-06-22T12:41:44;37.50;88.80
20155;DHT22;10238;49.556;10.956;2023-06-22T12:44:32;37.80;83.90
20155;DHT22;10238;49.556;10.956;2023-06-22T12:47:20;39.00;81.10
20155;DHT22;10238;49.556;10.956;2023-06-22T12:50:10;38.00;77.30
20155;DHT22;10238;49.556;10.956;2023-06-22T12:52:58;37.30;84.20
20155;DHT22;10238;49.556;10.956;2023-06-22T12:55:48;37.10;81.40
20155;DHT22;10238;49.556;10.956;2023-06-22T12:58:36;37.10;88.80
20155;DHT22;10238;49.556;10.956;2023-06-22T13:01:23;37.50;89.60
20155;DHT22;10238;49.556;10.956;2023-06-22T13:04:12;37.50;81.00
20155;DHT22;10238;49.556;10.956;2023-06-22T13:07:02;37.20;80.60
20155;DHT22;10238;49.556;10.956;2023-06-22T13:10:15;37.10;90.50
20155;DHT22;10238;49.556;10.956;2023-06-22T13:13:03;36.80;85.30
20155;DHT22;10238;49.556;10.956;2023-06-22T13:15:51;37.10;79.70
20155;DHT22;10238;49.556;10.956;2023-06-22T13:18:40;36.40;82.10
20155;DHT22;10238;49.556;10.956;2023-06-22T13:21:33;36.60;82.90
20155;DHT22;10238;49.556;10.956;2023-06-22T13:24:23;37.40;90.00
20155;DHT22;10238;49.556;10.956;2023-06-22T13:27:10;37.90;85.40
20155;DHT22;10238;49.556;10.956;2023-06-22T13:29:58;38.20;82.30
20155;DHT22;10238;49.556;10.956;2023-06-22T13:32:46;38.00;77.80
20155;DHT22;10238;49.556;10.956;2023-06-22T13:35:34;38.20;90.40
20155;DHT22;10238;49.556;10.956;2023-06-22T13:38:22;38.70;78.80
20155;DHT22;10238;49.556;10.956;2023-06-22T13:41:33;38.50;83.40
20155;DHT22;10238;49.556;10.956;2023-06-22T13:44:20;37.70;78.40
20155;DHT22;10238;49.556;10.956;2023-06-22T13:47:08;37.10;83.90
20155;DHT22;10238;49.556;10.956;2023-06-22T13:49:56;37.20;88.90
20155;DHT22;10238;49.556;10.956;2023-06-22T13:52:45;37.30;87.20
20155;DHT22;10238;49.556;10.956;2023-06-22T13:55:33;37.70;84.10
20155;DHT22;10238;49.556;10.956;2023-06-22T13:58:21;38.00;83.60
20155;DHT22;10238;49.556;10.956;2023-06-22T14:01:09;38.00;89.50
20155;DHT22;10238;49.556;10.956;2023-06-22T14:04:02;37.90;82.10
20155;DHT22;10238;49.556;10.956;2023-06-22T14:06:50;37.80;87.80
20155;DHT22;10238;49.556;10.956;2023-06-22T14:09:42;38.00;87.90
20155;DHT22;10238;49.556;10.956;2023-06-22T14:12:29;38.30;83.70
20155;DHT22;10238;49.556;10.956;2023-06-22T14:15:19;38.50;80.40
20155;DHT22;10238;49.556;10.956;2023-06-22T14:18:07;38.50;79.10
20155;DHT22;10238;49.556;10.956;2023-06-22T14:20:54;38.30;81.10
20155;DHT22;10238;49.556;10.956;2023-06-22T14:23:42;38.50;85.20
20155;DHT22;10238;49.556;10.956;2023-06-22T14:26:35;38.40;77.00
20155;DHT22;10238;49.556;10.956;2023-06-22T14:29:23;37.70;82.50
20155;DHT22;10238;49.556;10.956;2023-06-22T14:32:15;38.00;88.70
20155;DHT22;10238;49.556;10.956;2023-06-22T14:35:04;38.40;84.50
20155;DHT22;10238;49.556;10.956;2023-06-22T14:37:52;38.40;82.50
20155;DHT22;10238;49.556;10.956;2023-06-22T14:40:39;38.70;87.20
20155;DHT22;10238;49.556;10.956;2023-06-22T14:43:47;39.20;79.80
20155;DHT22;10238;49.556;10.956;2023-06-22T14:46:36;38.90;81.40
20155;DHT22;10238;49.556;10.956;2023-06-22T14:49:25;38.20;78.00
20155;DHT22;10238;49.556;10.956;2023-06-22T14:52:13;37.90;88.30
20155;DHT22;10238;49.556;10.956;2023-06-22T14:55:01;38.00;86.70
20155;DHT22;10238;49.556;10.956;2023-06-22T14:57:49;38.30;76.80
20155;DHT22;10238;49.556;10.956;2023-06-22T15:00:37;38.50;78.60
20155;DHT22;10238;49.556;10.956;2023-06-22T15:03:27;38.50;75.50
20155;DHT22;10238;49.556;10.956;2023-06-22T15:06:18;38.50;84.50
20155;DHT22;10238;49.556;10.956;2023-06-22T15:09:06;38.70;82.60
20155;DHT22;10238;49.556;10.956;2023-06-22T15:11:53;38.60;80.10
20155;DHT22;10238;49.556;10.956;2023-06-22T15:14:41;38.90;86.40
20155;DHT22;10238;49.556;10.956;2023-06-22T15:17:30;39.50;85.20
20155;DHT22;10238;49.556;10.956;2023-06-22T15:20:18;39.50;79.60
20155;DHT22;10238;49.556;10.956;2023-06-22T15:23:07;39.40;76.90
20155;DHT22;10238;49.556;10.956;2023-06-22T15:25:56;38.80;85.50
20155;DHT22;10238;49.556;10.956;2023-06-22T15:28:45;39.10;86.30
20155;DHT22;10238;49.556;10.956;2023-06-22T15:31:33;39.50;81.60
20155;DHT22;10238;49.556;10.956;2023-06-22T15:34:20;40.00;85.40
20155;DHT22;10238;49.556;10.956;2023-06-22T15:37:09;40.20;79.00
20155;DHT22;10238;49.556;10.956;2023-06-22T15:40:04;38.90;74.60
20155;DHT22;10238;49.556;10.956;2023-06-22T15:42:53;38.30;81.30
20155;DHT22;10238;49.556;10.956;2023-06-22T15:45:41;38.90;86.00
20155;DHT22;10238;49.556;10.956;2023-06-22T15:48:30;39.30;84.20
20155;DHT22;10238;49.556;10.956;2023-06-22T15:51:17;39.70;81.00
20155;DHT22;10238;49.556;10.956;2023-06-22T15:54:05;39.60;75.50
20155;DHT22;10238;49.556;10.956;2023-06-22T15:56:57;39.10;72.30
20155;DHT22;10238;49.556;10.956;2023-06-22T15:59:45;38.50;83.40
20155;DHT22;10238;49.556;10.956;2023-06-22T16:02:33;38.90;85.80
20155;DHT22;10238;49.556;10.956;2023-06-22T16:05:21;39.90;84.40
20155;DHT22;10238;49.556;10.956;2023-06-22T16:08:10;40.40;75.20
20155;DHT22;10238;49.556;10.956;2023-06-22T16:10:59;40.10;76.70
20155;DHT22;10238;49.556;10.956;2023-06-22T16:13:48;39.80;78.50
20155;DHT22;10238;49.556;10.956;2023-06-22T16:16:36;40.00;83.60
20155;DHT22;10238;49.556;10.956;2023-06-22T16:19:24;40.40;80.20
20155;DHT22;10238;49.556;10.956;2023-06-22T16:22:12;39.90;80.50
20155;DHT22;10238;49.556;10.956;2023-06-22T16:25:00;40.10;71.10
20155;DHT22;10238;49.556;10.956;2023-06-22T16:27:48;40.20;75.80
20155;DHT22;10238;49.556;10.956;2023-06-22T16:30:37;40.60;81.30
20155;DHT22;10238;49.556;10.956;2023-06-22T16:33:25;40.90;79.20
20155;DHT22;10238;49.556;10.956;2023-06-22T16:36:13;40.60;79.60
20155;DHT22;10238;49.556;10.956;2023-06-22T16:39:01;40.40;80.80
20155;DHT22;10238;49.556;10.956;2023-06-22T16:41:49;40.70;80.70
20155;DHT22;10238;49.556;10.956;2023-06-22T16:45:03;40.90;79.30
20155;DHT22;10238;49.556;10.956;2023-06-22T16:47:53;41.00;79.00
20155;DHT22;10238;49.556;10.956;2023-06-22T16:50:40;41.30;78.70
20155;DHT22;10238;49.556;10.956;2023-06-22T16:53:28;41.50;78.10
20155;DHT22;10238;49.556;10.956;2023-06-22T16:56:19;41.60;77.60
20155;DHT22;10238;49.556;10.956;2023-06-22T17:01:58;41.60;75.70
20155;DHT22;10238;49.556;10.956;2023-06-22T17:04:51;41.60;75.40
20155;DHT22;10238;49.556;10.956;2023-06-22T17:07:45;41.60;75.40
20155;DHT22;10238;49.556;10.956;2023-06-22T17:10:35;41.50;75.00
20155;DHT22;10238;49.556;10.956;2023-06-22T17:13:24;41.40;74.50
20155;DHT22;10238;49.556;10.956;2023-06-22T17:16:11;41.20;74.80
20155;DHT22;10238;49.556;10.956;2023-06-22T17:19:00;40.80;75.00
20155;DHT22;10238;49.556;10.956;2023-06-22T17:21:53;40.60;75.00
20155;DHT22;10238;49.556;10.956;2023-06-22T17:24:43;40.30;74.60
20155;DHT22;10238;49.556;10.956;2023-06-22T17:27:33;40.00;75.10
20155;DHT22;10238;49.556;10.956;2023-06-22T17:30:20;39.70;74.80
20155;DHT22;10238;49.556;10.956;2023-06-22T17:33:08;39.40;75.10
20155;DHT22;10238;49.556;10.956;2023-06-22T17:35:56;39.00;75.70
20155;DHT22;10238;49.556;10.956;2023-06-22T17:38:49;38.70;75.70
20155;DHT22;10238;49.556;10.956;2023-06-22T17:41:37;38.40;76.20